sensor_id;sensor_type;location;lat;lon;timestamp;P1;durP1;ratioP1;P2;durP2;ratioP2
23015;SDS011;11674;52.428;13.584;2023-06-26T00:03:52;12.00;;;8.68;;
23015;SDS011;11674;52.428;13.584;2023-06-26T00:09:00;11.98;;;8.45;;
23015;SDS011;11674;52.428;13.584;2023-06-26T00:14:06;10.27;;;8.80;;
23015;SDS011;11674;52.428;13.584;2023-06-26T00:19:13;9.85;;;8.25;;
23015;SDS011;11674;52.428;13.584;2023-06-26T00:24:20;9.82;;;8.48;;
23015;SDS011;11674;52.428;13.584;2023-06-26T00:29:27;12.63;;;9.13;;
23015;SDS011;11674;52.428;13.584;2023-06-26T00:34:34;10.07;;;8.85;;
23015;SDS011;11674;52.428;13.584;2023-06-26T00:39:42;12.57;;;8.98;;
23015;SDS011;11674;52.428;13.584;2023-06-26T00:44:50;13.40;;;8.55;;
23015;SDS011;11674;52.428;13.584;2023-06-26T00:49:57;13.07;;;8.85;;
23015;SDS011;11674;52.428;13.584;2023-06-26T00:55:04;11.90;;;9.23;;
23015;SDS011;11674;52.428;13.584;2023-06-26T01:00:11;16.08;;;9.63;;
23015;SDS011;11674;52.428;13.584;2023-06-26T01:05:19;12.90;;;10.50;;
23015;SDS011;11674;52.428;13.584;2023-06-26T01:10:26;12.10;;;9.85;;
23015;SDS011;11674;52.428;13.584;2023-06-26T01:15:34;14.60;;;9.98;;
23015;SDS011;11674;52.428;13.584;2023-06-26T01:20:40;12.57;;;10.35;;
23015;SDS011;11674;52.428;13.584;2023-06-26T01:31:27;11.68;;;10.05;;
23015;SDS011;11674;52.428;13.584;2023-06-26T01:36:36;14.73;;;10.23;;
23015;SDS011;11674;52.428;13.584;2023-06-26T01:41:43;18.92;;;12.15;;
23015;SDS011;11674;52.428;13.584;2023-06-26T01:52:06;14.55;;;10.45;;
23015;SDS011;11674;52.428;13.584;2023-06-26T01:57:26;12.30;;;10.85;;
23015;SDS011;11674;52.428;13.584;2023-06-26T02:02:34;15.48;;;11.25;;
23015;SDS011;11674;52.428;13.584;2023-06-26T02:07:41;12.93;;;10.65;;
23015;SDS011;11674;52.428;13.584;2023-06-26T02:12:49;16.27;;;10.80;;
23015;SDS011;11674;52.428;13.584;2023-06-26T02:17:56;18.95;;;11.25;;
23015;SDS011;11674;52.428;13.584;2023-06-26T02:23:02;13.55;;;10.75;;
23015;SDS011;11674;52.428;13.584;2023-06-26T02:28:10;13.30;;;11.40;;
23015;SDS011;11674;52.428;13.584;2023-06-26T02:33:17;13.40;;;11.75;;
23015;SDS011;11674;52.428;13.584;2023-06-26T02:38:24;14.38;;;11.82;;
23015;SDS011;11674;52.428;13.584;2023-06-26T02:43:30;14.15;;;11.27;;
23015;SDS011;11674;52.428;13.584;2023-06-26T02:48:38;14.02;;;11.27;;
23015;SDS011;11674;52.428;13.584;2023-06-26T02:53:45;14.10;;;11.90;;
23015;SDS011;11674;52.428;13.584;2023-06-26T02:58:51;14.73;;;11.52;;
23015;SDS011;11674;52.428;13.584;2023-06-26T03:04:00;14.35;;;10.73;;
23015;SDS011;11674;52.428;13.584;2023-06-26T03:09:07;13.23;;;10.25;;
23015;SDS011;11674;52.428;13.584;2023-06-26T03:14:14;14.23;;;11.50;;
23015;SDS011;11674;52.428;13.584;2023-06-26T03:19:21;12.85;;;10.63;;
23015;SDS011;11674;52.428;13.584;2023-06-26T03:24:46;14.38;;;10.93;;
23015;SDS011;11674;52.428;13.584;2023-06-26T03:29:54;13.68;;;11.60;;
23015;SDS011;11674;52.428;13.584;2023-06-26T03:35:01;13.75;;;12.00;;
23015;SDS011;11674;52.428;13.584;2023-06-26T03:40:08;13.48;;;11.20;;
23015;SDS011;11674;52.428;13.584;2023-06-26T03:45:16;13.20;;;11.48;;
23015;SDS011;11674;52.428;13.584;2023-06-26T03:50:23;16.60;;;12.00;;
23015;SDS011;11674;52.428;13.584;2023-06-26T03:55:31;16.30;;;12.52;;
23015;SDS011;11674;52.428;13.584;2023-06-26T04:00:38;15.00;;;11.52;;
23015;SDS011;11674;52.428;13.584;2023-06-26T04:05:45;13.98;;;12.07;;
23015;SDS011;11674;52.428;13.584;2023-06-26T04:10:52;14.20;;;12.23;;
23015;SDS011;11674;52.428;13.584;2023-06-26T04:15:59;15.50;;;11.93;;
23015;SDS011;11674;52.428;13.584;2023-06-26T04:21:07;12.77;;;11.23;;
23015;SDS011;11674;52.428;13.584;2023-06-26T04:26:15;13.25;;;11.60;;
23015;SDS011;11674;52.428;13.584;2023-06-26T04:31:22;13.40;;;11.35;;
23015;SDS011;11674;52.428;13.584;2023-06-26T04:36:29;13.27;;;10.73;;
23015;SDS011;11674;52.428;13.584;2023-06-26T04:41:36;12.43;;;10.40;;
23015;SDS011;11674;52.428;13.584;2023-06-26T04:46:43;14.57;;;11.18;;
23015;SDS011;11674;52.428;13.584;2023-06-26T04:51:50;14.15;;;11.40;;
23015;SDS011;11674;52.428;13.584;2023-06-26T04:56:57;12.77;;;10.85;;
23015;SDS011;11674;52.428;13.584;2023-06-26T05:02:04;13.38;;;10.93;;
23015;SDS011;11674;52.428;13.584;2023-06-26T05:07:11;15.48;;;11.63;;
23015;SDS011;11674;52.428;13.584;2023-06-26T05:12:18;14.30;;;11.40;;
23015;SDS011;11674;52.428;13.584;2023-06-26T05:17:25;13.05;;;11.05;;
23015;SDS011;11674;52.428;13.584;2023-06-26T05:22:32;15.82;;;10.80;;
23015;SDS011;11674;52.428;13.584;2023-06-26T05:27:47;12.88;;;10.98;;
23015;SDS011;11674;52.428;13.584;2023-06-26T05:32:55;13.88;;;10.35;;
23015;SDS011;11674;52.428;13.584;2023-06-26T05:38:03;12.40;;;11.10;;
23015;SDS011;11674;52.428;13.584;2023-06-26T05:43:10;14.23;;;10.18;;
23015;SDS011;11674;52.428;13.584;2023-06-26T05:48:17;12.93;;;10.30;;
23015;SDS011;11674;52.428;13.584;2023-06-26T05:53:24;11.00;;;9.70;;
23015;SDS011;11674;52.428;13.584;2023-06-26T05:58:31;10.80;;;9.60;;
23015;SDS011;11674;52.428;13.584;2023-06-26T06:03:39;15.30;;;9.20;;
23015;SDS011;11674;52.428;13.584;2023-06-26T06:08:47;11.85;;;9.25;;
23015;SDS011;11674;52.428;13.584;2023-06-26T06:13:54;12.63;;;9.68;;
23015;SDS011;11674;52.428;13.584;2023-06-26T06:19:01;11.20;;;9.45;;
23015;SDS011;11674;52.428;13.584;2023-06-26T06:24:08;12.25;;;9.15;;
23015;SDS011;11674;52.428;13.584;2023-06-26T06:29:24;10.30;;;8.95;;
23015;SDS011;11674;52.428;13.584;2023-06-26T06:34:32;9.75;;;8.75;;
23015;SDS011;11674;52.428;13.584;2023-06-26T06:39:39;18.50;;;8.13;;
23015;SDS011;11674;52.428;13.584;2023-06-26T06:44:46;10.02;;;8.13;;
23015;SDS011;11674;52.428;13.584;2023-06-26T06:49:53;8.88;;;7.80;;
23015;SDS011;11674;52.428;13.584;2023-06-26T06:55:00;9.32;;;7.57;;
23015;SDS011;11674;52.428;13.584;2023-06-26T07:00:08;8.25;;;6.68;;
23015;SDS011;11674;52.428;13.584;2023-06-26T07:05:16;9.90;;;7.00;;
23015;SDS011;11674;52.428;13.584;2023-06-26T07:10:23;8.18;;;6.13;;
23015;SDS011;11674;52.428;13.584;2023-06-26T07:15:30;7.65;;;5.80;;
23015;SDS011;11674;52.428;13.584;2023-06-26T07:20:37;9.63;;;6.72;;
23015;SDS011;11674;52.428;13.584;2023-06-26T07:25:44;9.85;;;5.88;;
23015;SDS011;11674;52.428;13.584;2023-06-26T07:30:51;8.35;;;5.68;;
23015;SDS011;11674;52.428;13.584;2023-06-26T07:36:05;7.55;;;5.47;;
23015;SDS011;11674;52.428;13.584;2023-06-26T07:41:12;6.22;;;4.55;;
23015;SDS011;11674;52.428;13.584;2023-06-26T07:46:19;7.05;;;5.32;;
23015;SDS011;11674;52.428;13.584;2023-06-26T07:51:26;10.82;;;4.80;;
23015;SDS011;11674;52.428;13.584;2023-06-26T07:56:35;6.68;;;4.90;;
23015;SDS011;11674;52.428;13.584;2023-06-26T08:02:05;6.88;;;4.72;;
23015;SDS011;11674;52.428;13.584;2023-06-26T08:07:12;6.68;;;5.00;;
23015;SDS011;11674;52.428;13.584;2023-06-26T08:12:19;5.70;;;4.60;;
23015;SDS011;11674;52.428;13.584;2023-06-26T08:17:26;9.57;;;7.25;;
23015;SDS011;11674;52.428;13.584;2023-06-26T08:22:33;11.05;;;7.93;;
23015;SDS011;11674;52.428;13.584;2023-06-26T08:27:40;11.50;;;4.80;;
23015;SDS011;11674;52.428;13.584;2023-06-26T08:32:47;9.25;;;5.75;;
23015;SDS011;11674;52.428;13.584;2023-06-26T08:37:54;6.60;;;4.43;;
23015;SDS011;11674;52.428;13.584;2023-06-26T08:43:01;6.82;;;4.20;;
23015;SDS011;11674;52.428;13.584;2023-06-26T08:48:08;9.13;;;4.30;;
23015;SDS011;11674;52.428;13.584;2023-06-26T08:53:21;6.88;;;4.80;;
23015;SDS011;11674;52.428;13.584;2023-06-26T08:58:35;10.80;;;5.55;;
23015;SDS011;11674;52.428;13.584;2023-06-26T09:03:43;11.85;;;7.82;;
23015;SDS011;11674;52.428;13.584;2023-06-26T09:08:50;9.15;;;5.80;;
23015;SDS011;11674;52.428;13.584;2023-06-26T09:13:57;5.75;;;3.92;;
23015;SDS011;11674;52.428;13.584;2023-06-26T09:19:04;12.82;;;8.73;;
23015;SDS011;11674;52.428;13.584;2023-06-26T09:24:15;6.05;;;4.90;;
23015;SDS011;11674;52.428;13.584;2023-06-26T09:29:23;7.85;;;4.15;;
23015;SDS011;11674;52.428;13.584;2023-06-26T09:34:30;6.45;;;4.45;;
23015;SDS011;11674;52.428;13.584;2023-06-26T09:39:38;8.10;;;4.07;;
23015;SDS011;11674;52.428;13.584;2023-06-26T09:44:45;6.57;;;4.15;;
23015;SDS011;11674;52.428;13.584;2023-06-26T09:49:53;4.95;;;3.63;;
23015;SDS011;11674;52.428;13.584;2023-06-26T09:55:09;6.75;;;4.25;;
23015;SDS011;11674;52.428;13.584;2023-06-26T10:00:17;5.97;;;3.90;;
23015;SDS011;11674;52.428;13.584;2023-06-26T10:05:24;5.57;;;3.60;;
23015;SDS011;11674;52.428;13.584;2023-06-26T10:10:31;6.60;;;3.75;;
23015;SDS011;11674;52.428;13.584;2023-06-26T10:15:41;10.95;;;6.45;;
23015;SDS011;11674;52.428;13.584;2023-06-26T10:20:51;12.07;;;8.18;;
23015;SDS011;11674;52.428;13.584;2023-06-26T10:31:09;6.03;;;4.03;;
23015;SDS011;11674;52.428;13.584;2023-06-26T10:36:18;4.20;;;3.50;;
23015;SDS011;11674;52.428;13.584;2023-06-26T10:41:39;3.58;;;2.95;;
23015;SDS011;11674;52.428;13.584;2023-06-26T10:46:53;3.25;;;2.95;;
23015;SDS011;11674;52.428;13.584;2023-06-26T10:52:01;6.30;;;2.90;;
23015;SDS011;11674;52.428;13.584;2023-06-26T10:57:08;3.90;;;3.28;;
23015;SDS011;11674;52.428;13.584;2023-06-26T11:02:15;4.45;;;3.00;;
23015;SDS011;11674;52.428;13.584;2023-06-26T11:07:25;5.50;;;3.13;;
23015;SDS011;11674;52.428;13.584;2023-06-26T11:12:43;12.77;;;5.32;;
23015;SDS011;11674;52.428;13.584;2023-06-26T11:17:51;6.95;;;5.57;;
23015;SDS011;11674;52.428;13.584;2023-06-26T11:22:58;3.58;;;2.67;;
23015;SDS011;11674;52.428;13.584;2023-06-26T11:28:05;3.97;;;3.33;;
23015;SDS011;11674;52.428;13.584;2023-06-26T11:33:12;7.22;;;3.15;;
23015;SDS011;11674;52.428;13.584;2023-06-26T11:38:19;3.35;;;3.03;;
23015;SDS011;11674;52.428;13.584;2023-06-26T11:43:26;4.88;;;3.35;;
23015;SDS011;11674;52.428;13.584;2023-06-26T11:48:33;4.32;;;3.13;;
23015;SDS011;11674;52.428;13.584;2023-06-26T11:53:40;3.63;;;3.22;;
23015;SDS011;11674;52.428;13.584;2023-06-26T11:59:07;5.90;;;2.85;;
23015;SDS011;11674;52.428;13.584;2023-06-26T12:04:16;5.80;;;3.13;;
23015;SDS011;11674;52.428;13.584;2023-06-26T12:09:24;4.20;;;3.40;;
23015;SDS011;11674;52.428;13.584;2023-06-26T12:14:32;5.55;;;3.67;;
23015;SDS011;11674;52.428;13.584;2023-06-26T12:19:43;9.98;;;4.20;;
23015;SDS011;11674;52.428;13.584;2023-06-26T12:24:52;6.07;;;3.65;;
23015;SDS011;11674;52.428;13.584;2023-06-26T12:30:03;9.75;;;4.28;;
23015;SDS011;11674;52.428;13.584;2023-06-26T12:35:11;5.63;;;3.72;;
23015;SDS011;11674;52.428;13.584;2023-06-26T12:40:18;13.02;;;4.65;;
23015;SDS011;11674;52.428;13.584;2023-06-26T12:45:26;8.82;;;3.83;;
23015;SDS011;11674;52.428;13.584;2023-06-26T12:50:36;12.48;;;6.40;;
23015;SDS011;11674;52.428;13.584;2023-06-26T12:55:44;11.52;;;6.35;;
23015;SDS011;11674;52.428;13.584;2023-06-26T13:00:51;4.18;;;3.65;;
23015;SDS011;11674;52.428;13.584;2023-06-26T13:05:58;5.45;;;3.67;;
23015;SDS011;11674;52.428;13.584;2023-06-26T13:11:05;4.53;;;3.72;;
23015;SDS011;11674;52.428;13.584;2023-06-26T13:16:12;5.15;;;3.67;;
23015;SDS011;11674;52.428;13.584;2023-06-26T13:21:19;3.38;;;3.08;;
23015;SDS011;11674;52.428;13.584;2023-06-26T13:26:26;8.52;;;4.60;;
23015;SDS011;11674;52.428;13.584;2023-06-26T13:31:33;4.85;;;4.10;;
23015;SDS011;11674;52.428;13.584;2023-06-26T13:36:40;6.35;;;3.97;;
23015;SDS011;11674;52.428;13.584;2023-06-26T13:41:47;7.65;;;4.38;;
23015;SDS011;11674;52.428;13.584;2023-06-26T13:46:54;6.85;;;4.07;;
23015;SDS011;11674;52.428;13.584;2023-06-26T13:52:01;30.45;;;22.23;;
23015;SDS011;11674;52.428;13.584;2023-06-26T13:57:08;4.65;;;4.20;;
23015;SDS011;11674;52.428;13.584;2023-06-26T14:02:15;12.02;;;4.45;;
23015;SDS011;11674;52.428;13.584;2023-06-26T14:07:22;4.60;;;3.58;;
23015;SDS011;11674;52.428;13.584;2023-06-26T14:12:29;7.10;;;4.10;;
23015;SDS011;11674;52.428;13.584;2023-06-26T14:17:36;7.10;;;4.05;;
23015;SDS011;11674;52.428;13.584;2023-06-26T14:22:43;11.23;;;6.05;;
23015;SDS011;11674;52.428;13.584;2023-06-26T14:27:50;10.98;;;6.47;;
23015;SDS011;11674;52.428;13.584;2023-06-26T14:32:57;5.18;;;4.53;;
23015;SDS011;11674;52.428;13.584;2023-06-26T14:38:04;19.10;;;4.45;;
23015;SDS011;11674;52.428;13.584;2023-06-26T14:43:11;10.25;;;2.88;;
23015;SDS011;11674;52.428;13.584;2023-06-26T14:48:18;7.95;;;2.00;;
23015;SDS011;11674;52.428;13.584;2023-06-26T14:53:25;7.03;;;3.92;;
23015;SDS011;11674;52.428;13.584;2023-06-26T14:58:32;8.48;;;3.58;;
23015;SDS011;11674;52.428;13.584;2023-06-26T15:03:39;9.50;;;3.92;;
23015;SDS011;11674;52.428;13.584;2023-06-26T15:08:46;10.57;;;4.38;;
23015;SDS011;11674;52.428;13.584;2023-06-26T15:13:53;9.93;;;5.03;;
23015;SDS011;11674;52.428;13.584;2023-06-26T15:19:01;7.60;;;6.05;;
23015;SDS011;11674;52.428;13.584;2023-06-26T15:24:08;10.07;;;7.97;;
23015;SDS011;11674;52.428;13.584;2023-06-26T15:29:15;11.55;;;8.38;;
23015;SDS011;11674;52.428;13.584;2023-06-26T15:34:22;16.83;;;9.05;;
23015;SDS011;11674;52.428;13.584;2023-06-26T15:39:29;16.55;;;9.55;;
23015;SDS011;11674;52.428;13.584;2023-06-26T15:44:36;14.85;;;9.07;;
23015;SDS011;11674;52.428;13.584;2023-06-26T15:49:44;8.90;;;5.90;;
23015;SDS011;11674;52.428;13.584;2023-06-26T15:54:51;7.05;;;5.32;;
23015;SDS011;11674;52.428;13.584;2023-06-26T15:59:58;7.38;;;5.00;;
23015;SDS011;11674;52.428;13.584;2023-06-26T16:05:12;7.00;;;5.07;;
23015;SDS011;11674;52.428;13.584;2023-06-26T16:10:26;11.02;;;5.95;;
23015;SDS011;11674;52.428;13.584;2023-06-26T16:15:33;9.27;;;5.68;;
23015;SDS011;11674;52.428;13.584;2023-06-26T16:20:40;9.65;;;6.38;;
23015;SDS011;11674;52.428;13.584;2023-06-26T16:25:47;9.68;;;6.72;;
23015;SDS011;11674;52.428;13.584;2023-06-26T16:30:54;8.77;;;6.60;;
23015;SDS011;11674;52.428;13.584;2023-06-26T16:36:01;11.15;;;7.55;;
23015;SDS011;11674;52.428;13.584;2023-06-26T16:41:08;10.38;;;8.18;;
23015;SDS011;11674;52.428;13.584;2023-06-26T16:46:16;14.10;;;8.18;;
23015;SDS011;11674;52.428;13.584;2023-06-26T16:51:23;12.20;;;7.40;;
23015;SDS011;11674;52.428;13.584;2023-06-26T16:56:30;12.45;;;8.10;;
23015;SDS011;11674;52.428;13.584;2023-06-26T17:01:37;12.45;;;8.55;;
23015;SDS011;11674;52.428;13.584;2023-06-26T17:06:44;12.55;;;7.82;;
23015;SDS011;11674;52.428;13.584;2023-06-26T17:11:51;14.00;;;8.65;;
23015;SDS011;11674;52.428;13.584;2023-06-26T17:16:58;14.57;;;8.57;;
23015;SDS011;11674;52.428;13.584;2023-06-26T17:22:05;14.10;;;9.48;;
23015;SDS011;11674;52.428;13.584;2023-06-26T17:27:13;15.07;;;9.80;;
23015;SDS011;11674;52.428;13.584;2023-06-26T17:32:20;15.20;;;9.55;;
23015;SDS011;11674;52.428;13.584;2023-06-26T17:37:27;13.32;;;9.52;;
23015;SDS011;11674;52.428;13.584;2023-06-26T17:42:34;14.98;;;9.90;;
23015;SDS011;11674;52.428;13.584;2023-06-26T17:47:41;13.05;;;9.80;;
23015;SDS011;11674;52.428;13.584;2023-06-26T17:52:48;14.45;;;8.75;;
23015;SDS011;11674;52.428;13.584;2023-06-26T17:57:55;11.50;;;8.07;;
23015;SDS011;11674;52.428;13.584;2023-06-26T18:03:02;11.38;;;7.80;;
23015;SDS011;11674;52.428;13.584;2023-06-26T18:08:09;11.18;;;8.13;;
23015;SDS011;11674;52.428;13.584;2023-06-26T18:13:16;10.70;;;7.32;;
23015;SDS011;11674;52.428;13.584;2023-06-26T18:18:23;13.65;;;8.70;;
23015;SDS011;11674;52.428;13.584;2023-06-26T18:23:31;11.93;;;7.95;;
23015;SDS011;11674;52.428;13.584;2023-06-26T18:28:39;11.25;;;7.30;;
23015;SDS011;11674;52.428;13.584;2023-06-26T18:33:46;9.75;;;7.30;;
23015;SDS011;11674;52.428;13.584;2023-06-26T18:38:53;10.07;;;6.90;;
23015;SDS011;11674;52.428;13.584;2023-06-26T18:44:00;9.30;;;7.28;;
23015;SDS011;11674;52.428;13.584;2023-06-26T18:49:07;14.95;;;7.90;;
23015;SDS011;11674;52.428;13.584;2023-06-26T18:54:14;12.18;;;7.65;;
23015;SDS011;11674;52.428;13.584;2023-06-26T18:59:21;11.75;;;6.97;;
23015;SDS011;11674;52.428;13.584;2023-06-26T19:04:28;11.93;;;7.45;;
23015;SDS011;11674;52.428;13.584;2023-06-26T19:09:35;11.65;;;7.28;;
23015;SDS011;11674;52.428;13.584;2023-06-26T19:14:42;14.50;;;8.40;;
23015;SDS011;11674;52.428;13.584;2023-06-26T19:19:49;11.75;;;7.63;;
23015;SDS011;11674;52.428;13.584;2023-06-26T19:24:57;12.82;;;7.82;;
23015;SDS011;11674;52.428;13.584;2023-06-26T19:30:07;10.07;;;6.88;;
23015;SDS011;11674;52.428;13.584;2023-06-26T19:35:14;16.77;;;8.15;;
23015;SDS011;11674;52.428;13.584;2023-06-26T19:40:21;10.18;;;7.93;;
23015;SDS011;11674;52.428;13.584;2023-06-26T19:45:28;14.38;;;7.55;;
23015;SDS011;11674;52.428;13.584;2023-06-26T19:50:35;12.05;;;7.00;;
23015;SDS011;11674;52.428;13.584;2023-06-26T19:55:42;15.82;;;9.52;;
23015;SDS011;11674;52.428;13.584;2023-06-26T20:00:49;8.07;;;4.40;;
23015;SDS011;11674;52.428;13.584;2023-06-26T20:05:56;10.95;;;4.85;;
23015;SDS011;11674;52.428;13.584;2023-06-26T20:11:03;8.18;;;4.22;;
23015;SDS011;11674;52.428;13.584;2023-06-26T20:16:10;7.57;;;4.13;;
23015;SDS011;11674;52.428;13.584;2023-06-26T20:21:17;8.95;;;3.85;;
23015;SDS011;11674;52.428;13.584;2023-06-26T20:26:24;13.77;;;3.28;;
23015;SDS011;11674;52.428;13.584;2023-06-26T20:31:31;5.43;;;2.40;;
23015;SDS011;11674;52.428;13.584;2023-06-26T20:36:38;6.35;;;2.45;;
23015;SDS011;11674;52.428;13.584;2023-06-26T20:41:45;3.78;;;2.00;;
23015;SDS011;11674;52.428;13.584;2023-06-26T20:46:52;7.82;;;3.42;;
23015;SDS011;11674;52.428;13.584;2023-06-26T20:51:59;6.80;;;2.95;;
23015;SDS011;11674;52.428;13.584;2023-06-26T20:57:06;6.72;;;3.38;;
23015;SDS011;11674;52.428;13.584;2023-06-26T21:02:13;4.70;;;1.92;;
23015;SDS011;11674;52.428;13.584;2023-06-26T21:07:20;4.28;;;2.03;;
23015;SDS011;11674;52.428;13.584;2023-06-26T21:12:27;5.18;;;2.00;;
23015;SDS011;11674;52.428;13.584;2023-06-26T21:17:34;4.57;;;2.55;;
23015;SDS011;11674;52.428;13.584;2023-06-26T21:22:41;4.10;;;2.25;;
23015;SDS011;11674;52.428;13.584;2023-06-26T21:27:48;7.55;;;2.03;;
23015;SDS011;11674;52.428;13.584;2023-06-26T21:32:55;2.25;;;1.65;;
23015;SDS011;11674;52.428;13.584;2023-06-26T21:38:02;5.25;;;2.00;;
23015;SDS011;11674;52.428;13.584;2023-06-26T21:43:09;8.38;;;2.25;;
23015;SDS011;11674;52.428;13.584;2023-06-26T21:48:16;5.65;;;2.40;;
23015;SDS011;11674;52.428;13.584;2023-06-26T21:53:23;8.68;;;4.25;;
23015;SDS011;11674;52.428;13.584;2023-06-26T21:58:30;10.32;;;1.90;;
23015;SDS011;11674;52.428;13.584;2023-06-26T22:03:37;6.00;;;1.67;;
23015;SDS011;11674;52.428;13.584;2023-06-26T22:08:44;3.85;;;1.55;;
23015;SDS011;11674;52.428;13.584;2023-06-26T22:13:51;4.65;;;1.45;;
23015;SDS011;11674;52.428;13.584;2023-06-26T22:18:58;4.68;;;1.50;;
23015;SDS011;11674;52.428;13.584;2023-06-26T22:24:05;2.85;;;1.40;;
23015;SDS011;11674;52.428;13.584;2023-06-26T22:29:12;3.97;;;1.48;;
23015;SDS011;11674;52.428;13.584;2023-06-26T22:34:19;2.15;;;1.50;;
23015;SDS011;11674;52.428;13.584;2023-06-26T22:39:26;2.65;;;1.38;;
23015;SDS011;11674;52.428;13.584;2023-06-26T22:44:33;4.20;;;1.60;;
23015;SDS011;11674;52.428;13.584;2023-06-26T22:49:41;2.53;;;1.30;;
23015;SDS011;11674;52.428;13.584;2023-06-26T22:54:48;7.18;;;1.60;;
23015;SDS011;11674;52.428;13.584;2023-06-26T22:59:55;5.88;;;1.50;;
23015;SDS011;11674;52.428;13.584;2023-06-26T23:05:03;5.65;;;2.47;;
23015;SDS011;11674;52.428;13.584;2023-06-26T23:10:10;6.03;;;2.00;;
23015;SDS011;11674;52.428;13.584;2023-06-26T23:15:17;5.28;;;1.92;;
23015;SDS011;11674;52.428;13.584;2023-06-26T23:20:24;4.63;;;2.25;;
23015;SDS011;11674;52.428;13.584;2023-06-26T23:25:31;8.98;;;2.33;;
23015;SDS011;11674;52.428;13.584;2023-06-26T23:30:38;5.32;;;1.63;;
23015;SDS011;11674;52.428;13.584;2023-06-26T23:35:45;5.97;;;1.90;;
23015;SDS011;11674;52.428;13.584;2023-06-26T23:40:52;6.90;;;1.83;;
23015;SDS011;11674;52.428;13.584;2023-06-26T23:45:59;5.93;;;1.77;;
23015;SDS011;11674;52.428;13.584;2023-06-26T23:51:06;5.00;;;1.65;;
23015;SDS011;11674;52.428;13.584;2023-06-26T23:56:13;7.40;;;3.28;;
